Time;durP1;ratioP1;P1;durP2;ratioP2;P2;SDS_P1;SDS_P2;PMS_P1;PMS_P2;Temp;Humidity;BMP_temperature;BMP_pressure;BME280_temperature;BME280_humidity;BME280_pressure;Samples;Min_cycle;Max_cycle;Signal;HPM_P1;HPM_P2
2023/03/25 00:00:17;;;;;;;33.40;19.48;;;;;;;;;;5013669;28;20205;-61
2023/03/25 00:03:05;;;;;;;25.45;15.50;;;;;;;;;;5013640;28;20576;-61
2023/03/25 00:05:32;;;;;;;34.00;18.65;;;;;;;;;;5013860;28;20229;-61
2023/03/25 00:08:00;;;;;;;23.20;15.10;;;;;;;;;;5013866;28;20201;-61
2023/03/25 00:10:27;;;;;;;23.58;15.45;;;;;;;;;;5013802;28;20202;-61
2023/03/25 00:12:54;;;;;;;21.52;14.10;;;;;;;;;;5013437;28;20216;-60
2023/03/25 00:15:22;;;;;;;24.30;16.15;;;;;;;;;;5013909;28;20233;-61
2023/03/25 00:17:50;;;;;;;20.98;14.20;;;;;;;;;;5013717;28;20213;-60
2023/03/25 00:20:17;;;;;;;24.73;14.85;;;;;;;;;;5013795;28;20194;-61
2023/03/25 00:22:44;;;;;;;25.70;15.77;;;;;;;;;;5013691;28;20210;-61
2023/03/25 00:25:19;;;;;;;26.73;15.35;;;;;;;;;;5013656;28;20248;-61
2023/03/25 00:27:47;;;;;;;35.97;26.40;;;;;;;;;;5013546;28;20209;-61
2023/03/25 00:30:15;;;;;;;29.58;23.02;;;;;;;;;;5013886;28;20216;-61
2023/03/25 00:32:44;;;;;;;20.77;14.95;;;;;;;;;;5013360;28;20206;-61
2023/03/25 00:35:12;;;;;;;19.17;13.20;;;;;;;;;;5015892;28;20267;-61
2023/03/25 00:37:40;;;;;;;22.10;14.13;;;;;;;;;;5012272;28;20562;-60
2023/03/25 00:40:07;;;;;;;19.33;13.15;;;;;;;;;;5028884;28;20202;-61
2023/03/25 00:42:35;;;;;;;23.67;14.82;;;;;;;;;;5012385;28;20263;-61
2023/03/25 00:45:02;;;;;;;22.55;14.25;;;;;;;;;;4995641;28;20225;-61
2023/03/25 00:47:31;;;;;;;19.02;13.63;;;;;;;;;;5015210;28;20673;-61
2023/03/25 00:49:58;;;;;;;17.65;14.00;;;;;;;;;;5033074;28;20197;-61
2023/03/25 00:52:25;;;;;;;18.67;13.88;;;;;;;;;;5032850;28;20696;-61
2023/03/25 00:54:52;;;;;;;21.73;14.10;;;;;;;;;;5032775;28;20259;-59
2023/03/25 00:57:21;;;;;;;22.67;13.82;;;;;;;;;;5015318;28;20212;-61
2023/03/25 00:59:48;;;;;;;19.65;14.65;;;;;;;;;;5032757;28;20731;-61
2023/03/25 01:02:17;;;;;;;21.55;14.55;;;;;;;;;;5032828;28;20690;-61
2023/03/25 01:04:48;;;;;;;20.55;14.48;;;;;;;;;;5033054;28;20719;-62
2023/03/25 01:07:17;;;;;;;24.58;15.95;;;;;;;;;;5032862;28;20235;-61
2023/03/25 01:09:47;;;;;;;21.70;15.95;;;;;;;;;;5032985;28;20226;-61
2023/03/25 01:12:15;;;;;;;23.38;14.93;;;;;;;;;;5033041;28;20192;-61
2023/03/25 01:14:42;;;;;;;23.65;15.80;;;;;;;;;;5033153;28;20291;-61
2023/03/25 01:17:10;;;;;;;21.92;15.73;;;;;;;;;;5032810;28;20208;-61
2023/03/25 01:19:37;;;;;;;24.05;15.68;;;;;;;;;;5032958;28;20262;-61
2023/03/25 01:22:05;;;;;;;27.83;17.80;;;;;;;;;;5032709;28;20584;-61
2023/03/25 01:24:32;;;;;;;28.63;19.38;;;;;;;;;;5034638;28;20235;-61
2023/03/25 01:26:59;;;;;;;39.28;24.98;;;;;;;;;;5036195;28;20211;-61
2023/03/25 01:29:28;;;;;;;22.75;16.60;;;;;;;;;;5036290;28;20260;-61
2023/03/25 01:31:56;;;;;;;24.83;17.95;;;;;;;;;;5018674;28;20200;-60
2023/03/25 01:34:24;;;;;;;26.45;18.23;;;;;;;;;;5036176;28;20213;-60
2023/03/25 01:36:54;;;;;;;25.92;18.20;;;;;;;;;;5018602;28;20637;-61
2023/03/25 01:39:22;;;;;;;25.65;17.70;;;;;;;;;;5036382;28;20285;-61
2023/03/25 01:41:49;;;;;;;24.98;16.88;;;;;;;;;;5035843;28;20673;-61
2023/03/25 01:44:37;;;;;;;25.80;16.77;;;;;;;;;;5035880;28;20263;-62
2023/03/25 01:47:07;;;;;;;23.23;17.40;;;;;;;;;;4998900;28;20263;-61
2023/03/25 01:49:38;;;;;;;25.38;17.67;;;;;;;;;;5018417;28;20723;-61
2023/03/25 01:52:12;;;;;;;25.08;17.88;;;;;;;;;;5035762;28;20695;-61
2023/03/25 01:54:40;;;;;;;22.67;16.95;;;;;;;;;;5018030;28;20737;-61
2023/03/25 01:57:09;;;;;;;24.63;18.02;;;;;;;;;;5002212;28;20208;-61
2023/03/25 01:59:37;;;;;;;24.92;18.15;;;;;;;;;;5018179;28;20316;-61
2023/03/25 02:02:07;;;;;;;25.08;18.25;;;;;;;;;;5017881;28;20608;-61
2023/03/25 02:05:02;;;;;;;27.17;17.38;;;;;;;;;;5035269;28;20224;-59
2023/03/25 02:07:34;;;;;;;25.60;18.17;;;;;;;;;;5019222;28;20208;-61
2023/03/25 02:10:06;;;;;;;25.00;18.63;;;;;;;;;;5018045;28;20733;-61
2023/03/25 02:12:34;;;;;;;24.67;17.83;;;;;;;;;;5035815;28;20189;-61
2023/03/25 02:15:04;;;;;;;29.77;18.15;;;;;;;;;;5035497;28;20240;-61
2023/03/25 02:17:37;;;;;;;25.65;18.45;;;;;;;;;;5002038;28;20200;-61
2023/03/25 02:20:14;;;;;;;26.70;19.70;;;;;;;;;;5017663;28;20246;-61
2023/03/25 02:23:03;;;;;;;26.42;19.15;;;;;;;;;;5035119;28;20208;-61
2023/03/25 02:26:07;;;;;;;25.92;19.48;;;;;;;;;;5017905;28;20225;-61
2023/03/25 02:28:54;;;;;;;30.83;21.88;;;;;;;;;;5035112;28;20546;-61
2023/03/25 02:31:24;;;;;;;67.75;40.00;;;;;;;;;;5017762;28;20292;-61
2023/03/25 02:34:10;;;;;;;50.47;31.77;;;;;;;;;;5017638;28;20200;-61
2023/03/25 02:36:43;;;;;;;26.38;19.15;;;;;;;;;;5001060;28;20246;-61
2023/03/25 02:39:15;;;;;;;25.52;18.92;;;;;;;;;;5017290;28;20209;-61
2023/03/25 02:41:50;;;;;;;25.17;18.38;;;;;;;;;;5035177;28;20208;-61
2023/03/25 02:44:50;;;;;;;26.00;19.05;;;;;;;;;;5001728;28;20298;-61
2023/03/25 02:47:19;;;;;;;22.17;18.42;;;;;;;;;;5017114;28;20203;-61
2023/03/25 02:49:52;;;;;;;23.77;17.85;;;;;;;;;;5017404;28;20216;-61
2023/03/25 02:52:23;;;;;;;27.60;19.13;;;;;;;;;;5017164;28;20665;-61
2023/03/25 02:54:56;;;;;;;24.13;18.90;;;;;;;;;;5001111;28;20209;-61
2023/03/25 02:57:27;;;;;;;23.52;17.42;;;;;;;;;;5034476;28;20292;-61
2023/03/25 02:59:56;;;;;;;28.05;16.73;;;;;;;;;;5017403;28;20197;-60
2023/03/25 03:02:25;;;;;;;26.27;16.65;;;;;;;;;;5017276;28;20235;-61
2023/03/25 03:04:55;;;;;;;24.08;17.27;;;;;;;;;;5000910;28;20232;-61
2023/03/25 03:07:31;;;;;;;22.75;16.13;;;;;;;;;;5016709;28;20248;-60
2023/03/25 03:10:29;;;;;;;26.42;16.27;;;;;;;;;;5000722;28;20565;-61
2023/03/25 03:13:08;;;;;;;25.75;17.10;;;;;;;;;;5017040;28;20202;-60
2023/03/25 03:15:48;;;;;;;27.58;16.55;;;;;;;;;;5034314;28;20728;-61
2023/03/25 03:18:41;;;;;;;31.45;17.08;;;;;;;;;;5016857;28;20196;-61
2023/03/25 03:21:23;;;;;;;21.77;15.65;;;;;;;;;;5034274;28;20213;-61
2023/03/25 03:23:59;;;;;;;22.40;16.83;;;;;;;;;;5016664;28;20215;-61
2023/03/25 03:26:49;;;;;;;23.70;17.27;;;;;;;;;;5017275;28;20228;-61
2023/03/25 03:29:18;;;;;;;23.98;16.98;;;;;;;;;;5016553;28;20619;-61
2023/03/25 03:31:53;;;;;;;23.27;17.65;;;;;;;;;;5016609;28;20212;-61
2023/03/25 03:34:51;;;;;;;25.08;18.33;;;;;;;;;;5033938;28;20669;-61
2023/03/25 03:37:32;;;;;;;25.30;18.50;;;;;;;;;;5016606;28;20212;-61
2023/03/25 03:40:02;;;;;;;31.25;21.52;;;;;;;;;;5034152;28;20205;-60
2023/03/25 03:42:36;;;;;;;19.00;15.23;;;;;;;;;;5017104;28;20208;-61
2023/03/25 03:45:17;;;;;;;24.13;16.17;;;;;;;;;;5016161;28;20220;-61
2023/03/25 03:47:48;;;;;;;23.75;15.52;;;;;;;;;;5016050;28;20196;-60
2023/03/25 03:50:19;;;;;;;18.35;14.48;;;;;;;;;;5016350;28;20225;-61
2023/03/25 03:53:09;;;;;;;20.88;14.80;;;;;;;;;;5016713;28;20189;-61
2023/03/25 03:55:51;;;;;;;19.60;15.05;;;;;;;;;;5016086;28;20673;-61
2023/03/25 03:58:29;;;;;;;22.10;13.35;;;;;;;;;;5016015;28;20266;-61
2023/03/25 04:01:08;;;;;;;18.17;14.35;;;;;;;;;;5015869;28;20566;-61
2023/03/25 04:03:47;;;;;;;17.60;14.02;;;;;;;;;;5016418;28;20201;-61
2023/03/25 04:06:34;;;;;;;21.08;13.20;;;;;;;;;;5016209;28;20228;-60
2023/03/25 04:09:07;;;;;;;19.85;14.23;;;;;;;;;;5016188;28;20667;-61
2023/03/25 04:11:55;;;;;;;21.65;13.95;;;;;;;;;;5033390;28;20185;-61
2023/03/25 04:14:22;;;;;;;22.98;14.48;;;;;;;;;;5015861;28;20236;-61
2023/03/25 04:16:51;;;;;;;23.13;14.25;;;;;;;;;;5015914;28;20193;-61
2023/03/25 04:19:19;;;;;;;16.52;12.70;;;;;;;;;;5033164;28;20200;-61
2023/03/25 04:21:46;;;;;;;18.42;13.07;;;;;;;;;;5033277;28;20200;-61
2023/03/25 04:24:15;;;;;;;16.15;11.82;;;;;;;;;;5033222;28;20200;-61
2023/03/25 04:26:42;;;;;;;18.15;12.45;;;;;;;;;;5032990;28;20235;-60
2023/03/25 04:29:12;;;;;;;16.75;12.10;;;;;;;;;;5032834;28;20599;-61
2023/03/25 04:31:45;;;;;;;14.63;12.20;;;;;;;;;;5032808;28;20660;-60
2023/03/25 04:34:13;;;;;;;22.02;12.68;;;;;;;;;;5032831;28;20193;-61
2023/03/25 04:36:41;;;;;;;20.70;11.60;;;;;;;;;;5033158;28;20598;-61
2023/03/25 04:39:16;;;;;;;22.55;12.40;;;;;;;;;;5032761;28;20669;-61
2023/03/25 04:41:43;;;;;;;15.85;11.50;;;;;;;;;;5032984;28;20200;-61
2023/03/25 04:44:11;;;;;;;16.45;11.05;;;;;;;;;;5032907;28;20205;-60
2023/03/25 04:46:38;;;;;;;22.17;12.90;;;;;;;;;;5032868;28;20235;-61
2023/03/25 04:49:12;;;;;;;17.13;12.32;;;;;;;;;;5032887;28;20209;-60
2023/03/25 04:51:48;;;;;;;18.98;11.20;;;;;;;;;;5032775;28;20665;-61
2023/03/25 04:54:18;;;;;;;18.08;11.00;;;;;;;;;;5032883;28;20207;-61
2023/03/25 04:56:48;;;;;;;18.17;11.70;;;;;;;;;;5032910;28;20188;-61
2023/03/25 04:59:17;;;;;;;18.60;11.93;;;;;;;;;;5036136;28;20620;-61
2023/03/25 05:01:44;;;;;;;14.98;10.77;;;;;;;;;;5036819;28;20204;-61
2023/03/25 05:04:16;;;;;;;16.73;11.45;;;;;;;;;;5019428;28;20208;-61
2023/03/25 05:06:45;;;;;;;15.90;10.88;;;;;;;;;;5036526;28;20681;-61
2023/03/25 05:09:18;;;;;;;15.35;11.20;;;;;;;;;;5036782;28;20196;-61
2023/03/25 05:11:45;;;;;;;14.95;10.65;;;;;;;;;;5036660;28;20201;-61
2023/03/25 05:14:15;;;;;;;16.73;11.30;;;;;;;;;;5036391;28;20613;-61
2023/03/25 05:16:43;;;;;;;16.77;11.50;;;;;;;;;;5036754;28;20192;-61
2023/03/25 05:19:11;;;;;;;20.65;12.13;;;;;;;;;;5019372;28;20208;-61
2023/03/25 05:21:39;;;;;;;20.35;11.82;;;;;;;;;;5036288;28;20205;-61
2023/03/25 05:24:09;;;;;;;16.58;11.77;;;;;;;;;;5036061;28;20557;-61
2023/03/25 05:26:38;;;;;;;21.60;13.02;;;;;;;;;;5036346;28;20229;-61
2023/03/25 05:29:14;;;;;;;17.83;11.80;;;;;;;;;;5036202;28;20691;-61
2023/03/25 05:31:44;;;;;;;14.60;10.80;;;;;;;;;;5036328;28;20200;-61
2023/03/25 05:34:15;;;;;;;25.92;18.08;;;;;;;;;;5036101;28;20200;-60
2023/03/25 05:36:43;;;;;;;19.58;14.35;;;;;;;;;;5036379;28;20283;-61
2023/03/25 05:39:11;;;;;;;21.83;13.90;;;;;;;;;;5036001;28;20212;-61
2023/03/25 05:41:38;;;;;;;20.05;14.30;;;;;;;;;;5036117;28;20204;-61
2023/03/25 05:44:07;;;;;;;23.52;15.25;;;;;;;;;;5031946;28;20197;-61
2023/03/25 05:46:34;;;;;;;22.33;15.23;;;;;;;;;;5034731;28;20209;-60
2023/03/25 05:49:01;;;;;;;20.85;13.60;;;;;;;;;;5034314;28;20216;-60
2023/03/25 05:51:32;;;;;;;17.60;12.82;;;;;;;;;;5034019;28;20204;-59
2023/03/25 05:54:00;;;;;;;21.50;13.40;;;;;;;;;;5032756;28;20533;-60
2023/03/25 05:56:28;;;;;;;19.30;12.98;;;;;;;;;;5031032;28;20204;-61
2023/03/25 05:58:56;;;;;;;22.15;13.98;;;;;;;;;;5032228;28;20684;-60
2023/03/25 06:01:23;;;;;;;24.63;13.45;;;;;;;;;;5029787;28;20224;-60
2023/03/25 06:04:01;;;;;;;21.63;14.02;;;;;;;;;;5026498;28;20193;-59
2023/03/25 06:06:32;;;;;;;19.77;13.70;;;;;;;;;;5016069;28;20318;-61
2023/03/25 06:09:01;;;;;;;22.60;15.30;;;;;;;;;;5031140;28;20240;-60
2023/03/25 06:11:29;;;;;;;22.17;16.00;;;;;;;;;;5032472;28;20865;-60
2023/03/25 06:13:56;;;;;;;20.35;13.82;;;;;;;;;;5030818;28;20229;-60
2023/03/25 06:16:28;;;;;;;22.92;16.45;;;;;;;;;;5029298;28;20670;-61
2023/03/25 06:18:58;;;;;;;22.52;15.25;;;;;;;;;;5024786;28;20473;-60
2023/03/25 06:21:28;;;;;;;29.15;16.75;;;;;;;;;;5002767;28;20572;-60
2023/03/25 06:23:57;;;;;;;24.05;15.27;;;;;;;;;;5020486;28;20235;-59
2023/03/25 06:26:24;;;;;;;19.85;14.23;;;;;;;;;;5034139;28;20286;-60
2023/03/25 06:28:51;;;;;;;20.38;14.25;;;;;;;;;;5024854;28;20224;-58
2023/03/25 06:31:26;;;;;;;20.35;13.65;;;;;;;;;;5030787;28;20245;-60
2023/03/25 06:33:57;;;;;;;23.33;16.08;;;;;;;;;;5033911;28;20267;-58
2023/03/25 06:36:24;;;;;;;22.10;16.30;;;;;;;;;;5033585;28;20227;-60
2023/03/25 06:38:52;;;;;;;27.13;19.95;;;;;;;;;;5033738;28;20229;-60
2023/03/25 06:41:23;;;;;;;27.88;20.95;;;;;;;;;;5015003;28;20250;-60
2023/03/25 06:44:08;;;;;;;26.08;20.10;;;;;;;;;;5015291;28;20274;-60
2023/03/25 06:46:44;;;;;;;30.30;20.63;;;;;;;;;;5034080;28;20239;-61
2023/03/25 06:49:38;;;;;;;24.10;18.50;;;;;;;;;;5029916;28;20228;-60
2023/03/25 06:52:05;;;;;;;27.23;20.35;;;;;;;;;;5015486;28;20224;-61
2023/03/25 06:54:33;;;;;;;27.33;19.50;;;;;;;;;;5033244;28;20224;-60
2023/03/25 06:57:00;;;;;;;28.83;21.67;;;;;;;;;;5032606;28;20227;-60
2023/03/25 06:59:27;;;;;;;27.05;20.42;;;;;;;;;;5032995;28;20228;-60
2023/03/25 07:01:55;;;;;;;27.75;20.92;;;;;;;;;;5032543;28;20224;-59
2023/03/25 07:04:22;;;;;;;28.73;21.63;;;;;;;;;;5032628;28;20251;-60
2023/03/25 07:06:49;;;;;;;31.25;23.13;;;;;;;;;;5031719;28;20247;-60
2023/03/25 07:09:17;;;;;;;30.08;24.08;;;;;;;;;;5032535;28;20287;-60
2023/03/25 07:11:44;;;;;;;28.50;22.00;;;;;;;;;;5032333;28;20235;-60
2023/03/25 07:14:11;;;;;;;32.50;23.23;;;;;;;;;;5031359;28;20693;-59
2023/03/25 07:16:39;;;;;;;29.25;22.50;;;;;;;;;;5030813;28;20791;-60
2023/03/25 07:19:06;;;;;;;33.35;23.60;;;;;;;;;;5032188;28;20267;-60
2023/03/25 07:21:33;;;;;;;28.98;22.23;;;;;;;;;;5031728;28;20193;-61
2023/03/25 07:24:00;;;;;;;27.60;21.85;;;;;;;;;;5029880;28;20203;-60
2023/03/25 07:26:27;;;;;;;27.65;22.00;;;;;;;;;;5031235;28;20224;-60
2023/03/25 07:28:54;;;;;;;28.65;22.92;;;;;;;;;;5032512;28;20216;-59
2023/03/25 07:31:22;;;;;;;28.00;21.98;;;;;;;;;;5029850;28;20197;-60
2023/03/25 07:33:50;;;;;;;26.38;22.30;;;;;;;;;;5032308;28;20243;-60
2023/03/25 07:36:17;;;;;;;28.50;21.63;;;;;;;;;;5032455;28;20258;-60
2023/03/25 07:38:45;;;;;;;29.33;21.85;;;;;;;;;;5032051;28;20212;-60
2023/03/25 07:41:12;;;;;;;28.60;22.38;;;;;;;;;;5032258;28;20711;-60
2023/03/25 07:43:51;;;;;;;31.00;23.38;;;;;;;;;;5013350;28;20669;-60
2023/03/25 07:46:24;;;;;;;28.88;22.52;;;;;;;;;;5010952;28;20209;-60
2023/03/25 07:48:51;;;;;;;27.10;22.50;;;;;;;;;;5031107;28;20279;-60
2023/03/25 07:51:18;;;;;;;29.73;23.50;;;;;;;;;;5030221;28;20203;-60
2023/03/25 07:53:46;;;;;;;29.45;23.10;;;;;;;;;;5031729;28;20207;-61
2023/03/25 07:56:14;;;;;;;30.27;23.25;;;;;;;;;;5030997;28;20216;-59
2023/03/25 07:58:43;;;;;;;27.60;22.67;;;;;;;;;;5031781;28;20201;-60
2023/03/25 08:01:10;;;;;;;30.30;22.77;;;;;;;;;;5031434;28;20699;-60
2023/03/25 08:03:38;;;;;;;32.10;25.27;;;;;;;;;;5027134;28;20205;-60
2023/03/25 08:06:06;;;;;;;34.53;25.98;;;;;;;;;;5031727;28;20220;-60
2023/03/25 08:08:34;;;;;;;32.05;25.30;;;;;;;;;;5031658;28;20201;-61
2023/03/25 08:11:01;;;;;;;31.70;23.98;;;;;;;;;;5019970;28;20206;-60
2023/03/25 08:13:29;;;;;;;30.52;23.85;;;;;;;;;;5046990;28;20196;-60
2023/03/25 08:15:56;;;;;;;36.67;24.13;;;;;;;;;;5031843;28;20228;-59
2023/03/25 08:18:24;;;;;;;33.08;24.17;;;;;;;;;;5031906;28;20630;-60
2023/03/25 08:20:52;;;;;;;27.80;22.63;;;;;;;;;;5033007;28;20204;-60
2023/03/25 08:23:21;;;;;;;31.30;23.02;;;;;;;;;;5021974;28;20213;-60
2023/03/25 08:25:49;;;;;;;31.25;24.77;;;;;;;;;;5024086;28;20258;-60
2023/03/25 08:28:21;;;;;;;29.73;23.02;;;;;;;;;;5032800;28;20213;-60
2023/03/25 08:30:53;;;;;;;30.58;24.05;;;;;;;;;;5033281;28;20223;-60
2023/03/25 08:33:25;;;;;;;27.67;21.90;;;;;;;;;;5034871;28;20189;-60
2023/03/25 08:35:56;;;;;;;26.90;21.65;;;;;;;;;;5036318;28;20250;-60
2023/03/25 08:38:24;;;;;;;28.73;21.00;;;;;;;;;;5034762;28;20520;-60
2023/03/25 08:40:51;;;;;;;27.15;22.30;;;;;;;;;;5034550;28;20197;-60
2023/03/25 08:43:18;;;;;;;31.52;25.98;;;;;;;;;;5034427;28;20208;-60
2023/03/25 08:45:45;;;;;;;36.33;27.42;;;;;;;;;;5035809;28;20215;-60
2023/03/25 08:48:13;;;;;;;29.77;25.13;;;;;;;;;;5035142;28;20740;-60
2023/03/25 08:50:40;;;;;;;30.65;25.05;;;;;;;;;;5035174;28;20576;-61
2023/03/25 08:53:08;;;;;;;32.17;23.75;;;;;;;;;;5035580;28;20200;-60
2023/03/25 08:55:36;;;;;;;31.35;25.08;;;;;;;;;;5034431;28;20228;-60
2023/03/25 08:58:04;;;;;;;30.73;25.85;;;;;;;;;;5034870;28;20303;-60
2023/03/25 09:00:32;;;;;;;33.13;26.23;;;;;;;;;;5034340;28;20197;-59
2023/03/25 09:02:59;;;;;;;27.75;24.17;;;;;;;;;;5035466;28;20197;-60
2023/03/25 09:05:27;;;;;;;35.13;30.35;;;;;;;;;;5016945;28;20197;-60
2023/03/25 09:07:54;;;;;;;40.40;30.85;;;;;;;;;;5035173;28;20216;-61
2023/03/25 09:10:21;;;;;;;34.50;28.67;;;;;;;;;;5033848;28;20193;-61
2023/03/25 09:12:50;;;;;;;70.30;42.65;;;;;;;;;;5034411;28;20196;-60
2023/03/25 09:15:17;;;;;;;35.00;29.13;;;;;;;;;;5033873;28;20224;-61
2023/03/25 09:17:44;;;;;;;32.85;27.48;;;;;;;;;;5035388;28;20213;-61
2023/03/25 09:20:12;;;;;;;31.17;27.35;;;;;;;;;;5035296;28;20720;-61
2023/03/25 09:22:40;;;;;;;33.85;26.27;;;;;;;;;;5034724;28;20739;-60
2023/03/25 09:25:07;;;;;;;34.25;26.80;;;;;;;;;;5035084;28;20284;-61
2023/03/25 09:27:35;;;;;;;30.85;24.77;;;;;;;;;;5034813;28;20255;-61
2023/03/25 09:30:03;;;;;;;27.98;22.13;;;;;;;;;;5034793;28;20200;-60
2023/03/25 09:32:31;;;;;;;28.63;23.73;;;;;;;;;;5034516;28;20554;-60
2023/03/25 09:34:58;;;;;;;30.85;25.00;;;;;;;;;;5034745;28;20216;-60
2023/03/25 09:37:26;;;;;;;30.60;26.48;;;;;;;;;;5034588;28;20200;-60
2023/03/25 09:39:53;;;;;;;31.90;26.80;;;;;;;;;;5035901;28;20189;-60
2023/03/25 09:42:34;;;;;;;38.17;29.45;;;;;;;;;;5034741;28;20303;-60
2023/03/25 09:45:05;;;;;;;37.45;28.23;;;;;;;;;;5032589;28;20181;-60
2023/03/25 09:47:41;;;;;;;30.63;25.45;;;;;;;;;;5035374;28;20205;-60
2023/03/25 09:50:11;;;;;;;29.67;22.83;;;;;;;;;;5035231;28;20215;-60
2023/03/25 09:52:50;;;;;;;35.30;27.02;;;;;;;;;;5034305;28;20209;-60
2023/03/25 09:55:31;;;;;;;28.50;21.95;;;;;;;;;;5018160;28;20199;-60
2023/03/25 09:58:13;;;;;;;28.80;23.23;;;;;;;;;;5035788;28;20200;-60
2023/03/25 10:00:40;;;;;;;25.00;19.80;;;;;;;;;;5035244;28;20185;-61
2023/03/25 10:03:23;;;;;;;28.92;19.52;;;;;;;;;;5034967;28;20533;-61
2023/03/25 10:05:58;;;;;;;23.00;18.88;;;;;;;;;;5017887;28;20247;-60
2023/03/25 10:08:44;;;;;;;36.50;22.67;;;;;;;;;;5035358;28;20227;-60
2023/03/25 10:11:20;;;;;;;25.27;20.23;;;;;;;;;;5034547;28;20191;-60
2023/03/25 10:13:59;;;;;;;34.30;25.05;;;;;;;;;;5033697;28;20669;-60
2023/03/25 10:16:36;;;;;;;26.02;21.15;;;;;;;;;;5033666;28;20204;-59
2023/03/25 10:19:14;;;;;;;36.95;27.20;;;;;;;;;;5033761;28;20650;-60
2023/03/25 10:21:45;;;;;;;74.25;42.42;;;;;;;;;;5045297;28;20661;-60
2023/03/25 10:24:16;;;;;;;55.72;35.70;;;;;;;;;;5033847;28;20197;-60
2023/03/25 10:26:52;;;;;;;39.38;29.75;;;;;;;;;;5032939;28;20243;-60
2023/03/25 10:29:23;;;;;;;38.72;29.48;;;;;;;;;;5034320;28;20241;-61
2023/03/25 10:31:52;;;;;;;35.72;27.55;;;;;;;;;;5034659;28;20200;-61
2023/03/25 10:34:34;;;;;;;46.58;30.33;;;;;;;;;;5034986;28;20204;-61
2023/03/25 10:37:06;;;;;;;42.00;29.77;;;;;;;;;;5034891;28;20237;-61
2023/03/25 10:39:37;;;;;;;44.85;29.48;;;;;;;;;;5033017;28;20207;-60
2023/03/25 10:42:17;;;;;;;61.25;38.95;;;;;;;;;;5034101;28;20212;-60
2023/03/25 10:44:45;;;;;;;38.85;26.15;;;;;;;;;;5033444;28;20188;-61
2023/03/25 10:47:17;;;;;;;29.27;22.17;;;;;;;;;;5016744;28;20217;-61
2023/03/25 10:49:46;;;;;;;31.60;24.83;;;;;;;;;;5015389;28;20642;-61
2023/03/25 10:52:14;;;;;;;36.22;26.90;;;;;;;;;;5015745;28;20291;-60
2023/03/25 10:54:44;;;;;;;36.92;26.38;;;;;;;;;;5015086;28;20205;-61
2023/03/25 10:57:20;;;;;;;37.88;25.17;;;;;;;;;;5014391;28;20201;-60
2023/03/25 10:59:53;;;;;;;44.13;29.60;;;;;;;;;;5015777;28;20246;-61
2023/03/25 11:02:24;;;;;;;62.08;42.92;;;;;;;;;;5030426;28;20193;-61
2023/03/25 11:04:56;;;;;;;39.90;27.05;;;;;;;;;;5032601;28;20228;-62
2023/03/25 11:07:39;;;;;;;42.22;29.13;;;;;;;;;;5031663;28;20205;-62
2023/03/25 11:10:13;;;;;;;35.05;26.38;;;;;;;;;;5031840;28;20248;-61
2023/03/25 11:12:45;;;;;;;44.10;29.90;;;;;;;;;;5032838;28;20193;-61
2023/03/25 11:15:15;;;;;;;55.08;39.42;;;;;;;;;;5031117;28;20228;-61
2023/03/25 11:17:46;;;;;;;42.15;29.77;;;;;;;;;;5032518;28;20192;-61
2023/03/25 11:20:21;;;;;;;37.50;26.77;;;;;;;;;;5015045;28;20193;-60
2023/03/25 11:22:50;;;;;;;67.07;40.33;;;;;;;;;;5014833;28;20604;-60
2023/03/25 11:25:28;;;;;;;59.63;35.20;;;;;;;;;;5030907;28;20653;-61
2023/03/25 11:28:02;;;;;;;127.45;74.15;;;;;;;;;;5030444;28;20212;-61
2023/03/25 11:30:30;;;;;;;37.60;24.83;;;;;;;;;;5030582;28;20199;-61
2023/03/25 11:33:02;;;;;;;29.02;23.05;;;;;;;;;;5015279;28;20287;-61
2023/03/25 11:35:33;;;;;;;26.15;19.98;;;;;;;;;;5033631;28;20193;-62
2023/03/25 11:38:01;;;;;;;21.70;18.63;;;;;;;;;;5016735;28;20204;-61
2023/03/25 11:40:30;;;;;;;23.00;17.52;;;;;;;;;;5016560;28;20209;-60
2023/03/25 11:42:59;;;;;;;24.88;15.95;;;;;;;;;;5031443;28;20239;-60
2023/03/25 11:45:36;;;;;;;21.85;15.75;;;;;;;;;;5011270;28;20205;-61
2023/03/25 11:48:14;;;;;;;21.42;14.55;;;;;;;;;;5013877;28;20216;-61
2023/03/25 11:50:53;;;;;;;23.85;15.48;;;;;;;;;;5013678;28;20583;-60
2023/03/25 11:53:21;;;;;;;20.92;13.10;;;;;;;;;;5031472;28;20189;-60
2023/03/25 11:55:50;;;;;;;20.80;13.00;;;;;;;;;;5032981;28;20695;-60
2023/03/25 11:58:21;;;;;;;19.55;11.05;;;;;;;;;;5032539;28;20258;-59
2023/03/25 12:00:50;;;;;;;20.67;11.77;;;;;;;;;;5031968;28;20223;-60
2023/03/25 12:03:21;;;;;;;20.67;11.77;;;;;;;;;;5015438;28;20756;-58
2023/03/25 12:06:04;;;;;;;20.73;12.43;;;;;;;;;;5024506;28;20220;-60
2023/03/25 12:09:02;;;;;;;23.67;15.82;;;;;;;;;;5031875;28;20248;-63
2023/03/25 12:11:41;;;;;;;19.77;10.82;;;;;;;;;;4971403;28;20704;-60
2023/03/25 12:14:11;;;;;;;22.80;10.25;;;;;;;;;;4970990;28;20270;-60
2023/03/25 12:16:47;;;;;;;20.20;10.07;;;;;;;;;;4987922;28;20229;-60
2023/03/25 12:19:36;;;;;;;25.25;11.52;;;;;;;;;;4971033;28;20230;-60
2023/03/25 12:22:10;;;;;;;18.95;10.13;;;;;;;;;;4984659;28;20213;-60
2023/03/25 12:25:02;;;;;;;20.05;7.18;;;;;;;;;;4989058;28;20773;-59
2023/03/25 12:27:45;;;;;;;20.42;8.63;;;;;;;;;;5003916;28;20233;-60
2023/03/25 12:30:28;;;;;;;23.38;12.63;;;;;;;;;;4985309;28;20248;-60
2023/03/25 12:33:15;;;;;;;18.33;9.10;;;;;;;;;;4972966;28;20229;-60
2023/03/25 12:36:14;;;;;;;18.92;9.70;;;;;;;;;;4988400;28;20305;-60
2023/03/25 12:38:47;;;;;;;20.80;9.07;;;;;;;;;;4985677;28;20256;-59
2023/03/25 12:41:25;;;;;;;14.65;7.72;;;;;;;;;;4979549;28;20218;-60
2023/03/25 12:44:09;;;;;;;15.40;8.00;;;;;;;;;;4987555;28;20218;-60
2023/03/25 12:46:39;;;;;;;89.68;43.03;;;;;;;;;;4981222;28;20222;-61
2023/03/25 12:49:31;;;;;;;111.25;60.35;;;;;;;;;;5029057;28;20237;-60
2023/03/25 12:52:10;;;;;;;13.70;7.80;;;;;;;;;;5029778;28;20232;-60
2023/03/25 12:55:03;;;;;;;10.70;6.55;;;;;;;;;;5029911;28;20251;-61
2023/03/25 12:57:39;;;;;;;11.35;5.70;;;;;;;;;;5004648;28;20585;-61
2023/03/25 13:00:21;;;;;;;13.13;5.53;;;;;;;;;;5027677;28;20735;-60
2023/03/25 13:03:20;;;;;;;11.73;5.25;;;;;;;;;;5031002;28;20223;-60
2023/03/25 13:06:00;;;;;;;13.02;5.43;;;;;;;;;;5031318;28;20275;-60
2023/03/25 13:08:34;;;;;;;12.57;6.18;;;;;;;;;;5028606;28;20232;-60
2023/03/25 13:11:07;;;;;;;13.55;6.90;;;;;;;;;;5028165;28;20217;-60
2023/03/25 13:13:36;;;;;;;11.10;5.40;;;;;;;;;;5013351;28;20213;-60
2023/03/25 13:16:10;;;;;;;14.60;5.85;;;;;;;;;;5008612;28;20233;-60
2023/03/25 13:19:09;;;;;;;13.75;7.18;;;;;;;;;;4990647;28;20234;-60
2023/03/25 13:21:43;;;;;;;18.52;6.63;;;;;;;;;;4990867;28;20222;-60
2023/03/25 13:24:15;;;;;;;12.07;5.60;;;;;;;;;;4995225;28;20229;-60
2023/03/25 13:26:44;;;;;;;15.95;6.05;;;;;;;;;;4993252;28;20611;-60
2023/03/25 13:29:17;;;;;;;31.55;11.57;;;;;;;;;;4996600;28;20317;-60
2023/03/25 13:31:46;;;;;;;19.58;7.97;;;;;;;;;;5015617;28;20236;-60
2023/03/25 13:34:26;;;;;;;13.10;6.60;;;;;;;;;;5002697;28;20241;-61
2023/03/25 13:37:13;;;;;;;14.32;6.28;;;;;;;;;;4993798;28;20221;-60
2023/03/25 13:39:59;;;;;;;16.08;6.10;;;;;;;;;;5001511;28;20242;-59
2023/03/25 13:42:54;;;;;;;16.67;6.28;;;;;;;;;;4992481;28;20222;-60
2023/03/25 13:45:22;;;;;;;22.27;11.52;;;;;;;;;;4994935;28;20234;-60
2023/03/25 13:48:15;;;;;;;42.95;20.55;;;;;;;;;;4993954;28;20780;-58
2023/03/25 13:50:42;;;;;;;26.67;14.52;;;;;;;;;;4990582;28;20702;-60
2023/03/25 13:53:13;;;;;;;16.95;6.80;;;;;;;;;;4994843;28;20238;-60
2023/03/25 13:55:45;;;;;;;9.18;4.70;;;;;;;;;;4994256;28;20222;-59
2023/03/25 13:58:44;;;;;;;8.85;4.38;;;;;;;;;;4994534;28;20218;-59
2023/03/25 14:01:19;;;;;;;18.40;6.82;;;;;;;;;;4992947;28;20233;-59
2023/03/25 14:04:11;;;;;;;9.27;4.90;;;;;;;;;;4992178;28;20221;-59
2023/03/25 14:06:53;;;;;;;17.58;7.25;;;;;;;;;;4994106;28;20226;-59
2023/03/25 14:09:45;;;;;;;95.47;53.60;;;;;;;;;;4994153;28;20229;-60
2023/03/25 14:12:20;;;;;;;11.63;5.90;;;;;;;;;;4992702;28;20222;-59
2023/03/25 14:15:16;;;;;;;14.18;5.55;;;;;;;;;;4996667;28;20243;-59
2023/03/25 14:17:45;;;;;;;13.32;5.57;;;;;;;;;;5016087;28;20231;-59
2023/03/25 14:20:23;;;;;;;33.80;18.63;;;;;;;;;;5015903;28;20331;-60
2023/03/25 14:22:55;;;;;;;76.03;49.15;;;;;;;;;;5014325;28;20670;-58
2023/03/25 14:25:44;;;;;;;43.00;21.25;;;;;;;;;;5014145;28;20216;-60
2023/03/25 14:28:17;;;;;;;26.77;6.32;;;;;;;;;;5010798;28;20237;-57
2023/03/25 14:31:13;;;;;;;11.25;4.75;;;;;;;;;;5012783;28;20212;-59
2023/03/25 14:33:58;;;;;;;10.82;4.85;;;;;;;;;;5032486;28;20262;-60
2023/03/25 14:36:38;;;;;;;14.80;4.75;;;;;;;;;;5030841;28;20220;-60
2023/03/25 14:39:29;;;;;;;13.85;4.93;;;;;;;;;;5030504;28;20240;-60
2023/03/25 14:42:07;;;;;;;11.48;4.28;;;;;;;;;;5020177;28;20212;-59
2023/03/25 14:44:48;;;;;;;9.73;5.70;;;;;;;;;;5030724;28;20575;-59
2023/03/25 14:47:19;;;;;;;10.95;4.40;;;;;;;;;;5031520;28;20576;-59
2023/03/25 14:50:00;;;;;;;12.07;4.57;;;;;;;;;;5030875;28;20205;-59
2023/03/25 14:52:40;;;;;;;14.20;6.45;;;;;;;;;;5030113;28;20558;-60